Time;durP1;ratioP1;P1;durP2;ratioP2;P2;SDS_P1;SDS_P2;PMS_P1;PMS_P2;Temp;Humidity;BMP_temperature;BMP_pressure;BME280_temperature;BME280_humidity;BME280_pressure;Samples;Min_cycle;Max_cycle;Signal;HPM_P1;HPM_P2
2022/03/13 00:00:49;;;;;;;6.67;4.27;;;0.70;84.70;;;;;;5077654;28;21014;-81
2022/03/13 00:03:17;;;;;;;6.13;4.47;;;0.90;83.20;;;;;;5093228;28;20204;-82
2022/03/13 00:05:45;;;;;;;6.97;4.10;;;0.80;83.00;;;;;;5077465;28;20186;-81
2022/03/13 00:08:29;;;;;;;6.80;4.07;;;0.90;82.90;;;;;;5077458;28;20174;-81
2022/03/13 00:11:01;;;;;;;8.47;4.80;;;1.00;82.70;;;;;;5076018;28;20193;-80
2022/03/13 00:13:32;;;;;;;6.63;4.30;;;0.90;82.60;;;;;;5074791;28;20296;-82
2022/03/13 00:16:03;;;;;;;8.07;4.43;;;1.00;81.50;;;;;;5077173;28;20240;-82
2022/03/13 00:18:30;;;;;;;7.33;4.63;;;1.00;80.60;;;;;;5077902;28;20170;-80
2022/03/13 00:20:55;;;;;;;9.07;4.10;;;1.10;80.60;;;;;;5078147;28;20181;-78
2022/03/13 00:23:22;;;;;;;6.00;4.00;;;1.10;80.20;;;;;;5077129;28;20571;-81
2022/03/13 00:25:48;;;;;;;7.27;4.27;;;1.20;80.10;;;;;;5075375;28;20191;-80
2022/03/13 00:28:14;;;;;;;6.47;4.53;;;1.20;80.10;;;;;;5077024;28;20268;-80
2022/03/13 00:30:40;;;;;;;5.77;4.37;;;1.20;79.60;;;;;;5078664;28;20208;-80
2022/03/13 00:33:07;;;;;;;7.07;3.63;;;1.10;80.00;;;;;;5075460;28;20207;-79
2022/03/13 00:35:33;;;;;;;6.07;4.33;;;1.10;80.20;;;;;;5076720;28;20231;-81
2022/03/13 00:37:59;;;;;;;6.13;4.33;;;1.10;80.50;;;;;;5079066;28;20647;-80
2022/03/13 00:40:25;;;;;;;5.70;3.97;;;1.00;79.90;;;;;;5077930;28;20195;-80
2022/03/13 00:42:51;;;;;;;7.37;4.80;;;1.00;80.60;;;;;;5074998;28;20209;-81
2022/03/13 00:45:17;;;;;;;7.47;4.27;;;1.00;80.50;;;;;;5076282;28;20238;-82
2022/03/13 00:47:42;;;;;;;6.87;4.23;;;0.90;81.20;;;;;;5075185;28;20263;-81
2022/03/13 00:50:08;;;;;;;7.27;5.10;;;0.80;81.30;;;;;;5074337;28;20704;-79
2022/03/13 00:52:34;;;;;;;6.43;4.20;;;0.80;82.70;;;;;;5087386;28;20201;-81
2022/03/13 00:55:00;;;;;;;6.53;4.60;;;0.70;82.60;;;;;;5072987;28;20272;-80
2022/03/13 00:57:29;;;;;;;10.37;4.90;;;0.70;82.70;;;;;;5091116;28;20192;-82
2022/03/13 01:00:18;;;;;;;7.30;4.43;;;0.50;84.20;;;;;;5091197;28;20194;-79
2022/03/13 01:02:46;;;;;;;6.73;4.57;;;0.40;85.80;;;;;;5087127;28;20228;-80
2022/03/13 01:05:21;;;;;;;6.53;4.33;;;0.10;86.90;;;;;;5090365;28;20185;-81
2022/03/13 01:07:48;;;;;;;6.53;4.73;;;-0.10;87.20;;;;;;5073161;28;20232;-79
2022/03/13 01:10:22;;;;;;;6.73;4.37;;;-0.30;88.40;;;;;;5091137;28;20235;-80
2022/03/13 01:12:52;;;;;;;7.10;4.77;;;-0.40;89.60;;;;;;5076273;28;20235;-81
2022/03/13 01:15:27;;;;;;;5.83;4.60;;;-0.30;90.10;;;;;;5093600;28;20257;-80
2022/03/13 01:17:53;;;;;;;7.33;4.63;;;-0.40;90.40;;;;;;5077708;28;20184;-80
2022/03/13 01:20:22;;;;;;;6.77;4.50;;;-0.40;90.80;;;;;;5075732;28;20655;-79
2022/03/13 01:22:49;;;;;;;6.83;4.57;;;-0.40;90.60;;;;;;5074967;28;20866;-80
2022/03/13 01:25:15;;;;;;;5.80;4.40;;;-0.50;90.60;;;;;;5076958;28;20197;-79
2022/03/13 01:27:41;;;;;;;6.00;4.23;;;-0.50;90.60;;;;;;5078905;28;20246;-81
2022/03/13 01:30:08;;;;;;;6.47;4.17;;;-0.60;91.40;;;;;;5078243;28;20395;-80
2022/03/13 01:32:36;;;;;;;8.07;4.33;;;-0.60;91.10;;;;;;5076042;28;20243;-81
2022/03/13 01:35:02;;;;;;;6.43;4.43;;;-0.60;91.90;;;;;;5076889;28;20181;-80
2022/03/13 01:37:35;;;;;;;6.73;4.40;;;-0.80;91.90;;;;;;5095248;28;20230;-81
2022/03/13 01:40:11;;;;;;;6.63;4.73;;;-0.80;92.30;;;;;;5079758;28;20591;-80
2022/03/13 01:42:42;;;;;;;6.77;4.80;;;-0.90;92.60;;;;;;5081001;28;20208;-79
2022/03/13 01:45:14;;;;;;;7.43;4.60;;;-1.00;93.20;;;;;;5080778;28;20225;-79
2022/03/13 01:47:39;;;;;;;8.80;5.27;;;-1.00;93.80;;;;;;5079045;28;20222;-77
2022/03/13 01:50:09;;;;;;;6.80;5.07;;;-1.10;94.30;;;;;;5080913;28;20551;-79
2022/03/13 01:52:37;;;;;;;8.30;5.10;;;-1.20;94.90;;;;;;5080923;28;20209;-76
2022/03/13 01:55:04;;;;;;;7.50;4.83;;;-1.30;96.10;;;;;;5080664;28;20181;-80
2022/03/13 01:57:32;;;;;;;7.90;4.47;;;-1.30;97.20;;;;;;5080755;28;20213;-78
2022/03/13 01:59:59;;;;;;;7.77;5.30;;;-1.40;98.20;;;;;;5079583;28;20394;-78
2022/03/13 02:02:26;;;;;;;8.60;5.27;;;-1.40;99.20;;;;;;5080127;28;20205;-79
2022/03/13 02:04:53;;;;;;;8.33;5.10;;;-1.50;99.90;;;;;;5078302;28;20188;-79
2022/03/13 02:07:21;;;;;;;7.20;4.77;;;-1.50;99.90;;;;;;5082608;28;20191;-81
2022/03/13 02:09:48;;;;;;;8.83;4.90;;;-1.60;99.90;;;;;;5079754;28;21365;-80
2022/03/13 02:12:17;;;;;;;7.40;5.30;;;-1.70;99.90;;;;;;5081744;28;20279;-79
2022/03/13 02:14:43;;;;;;;8.10;4.93;;;-1.60;99.90;;;;;;5078301;28;20199;-81
2022/03/13 02:17:08;;;;;;;8.73;5.00;;;-1.60;99.90;;;;;;5080870;28;20928;-78
2022/03/13 02:19:34;;;;;;;6.07;4.40;;;-1.60;99.90;;;;;;5071338;28;20257;-81
2022/03/13 02:22:00;;;;;;;7.87;5.37;;;-1.60;99.90;;;;;;5079047;28;20209;-80
2022/03/13 02:24:26;;;;;;;7.93;4.70;;;-1.60;99.90;;;;;;5080066;28;20184;-80
2022/03/13 02:27:05;;;;;;;6.30;4.63;;;-1.70;99.90;;;;;;5079710;28;20188;-80
2022/03/13 02:29:31;;;;;;;8.60;4.80;;;-1.70;99.90;;;;;;5079192;28;20185;-77
2022/03/13 02:31:59;;;;;;;7.83;4.97;;;-1.50;99.90;;;;;;5080687;28;20573;-79
2022/03/13 02:34:25;;;;;;;7.00;4.70;;;-1.40;99.90;;;;;;5080262;28;20192;-82
2022/03/13 02:36:51;;;;;;;8.67;5.40;;;-1.50;99.90;;;;;;5081594;28;20173;-79
2022/03/13 02:39:17;;;;;;;6.97;4.23;;;-1.50;99.90;;;;;;5082459;28;20189;-79
2022/03/13 02:41:44;;;;;;;7.57;5.10;;;-1.60;99.90;;;;;;5079326;28;20208;-78
2022/03/13 02:44:12;;;;;;;7.43;4.43;;;-1.60;99.90;;;;;;5080744;28;20282;-80
2022/03/13 02:46:57;;;;;;;8.20;5.43;;;-1.70;99.90;;;;;;5095263;28;20177;-79
2022/03/13 02:49:25;;;;;;;8.57;5.07;;;-1.60;99.90;;;;;;5079040;28;20620;-81
2022/03/13 02:51:53;;;;;;;6.90;4.77;;;-1.70;99.90;;;;;;5080204;28;20674;-81
2022/03/13 02:54:20;;;;;;;8.80;4.77;;;-1.60;99.90;;;;;;5079250;28;20177;-79
2022/03/13 02:56:46;;;;;;;8.57;4.70;;;-1.50;99.90;;;;;;5082021;28;20555;-79
2022/03/13 02:59:12;;;;;;;7.93;5.20;;;-1.60;99.90;;;;;;5078463;28;20211;-78
2022/03/13 03:01:39;;;;;;;8.03;5.70;;;-1.60;99.90;;;;;;5081588;28;20808;-80
2022/03/13 03:04:05;;;;;;;8.63;4.50;;;-1.60;99.90;;;;;;5079315;28;20566;-82
2022/03/13 03:06:32;;;;;;;7.43;4.97;;;-1.60;99.90;;;;;;5080195;28;20181;-77
2022/03/13 03:09:03;;;;;;;8.43;4.73;;;-1.60;99.90;;;;;;5079936;28;20189;-79
2022/03/13 03:11:32;;;;;;;9.03;5.30;;;-1.70;99.90;;;;;;5079625;28;20682;-79
2022/03/13 03:13:59;;;;;;;8.13;5.73;;;-1.80;99.90;;;;;;5077460;28;20547;-79
2022/03/13 03:16:25;;;;;;;7.07;4.60;;;-1.80;99.90;;;;;;5079780;28;20655;-81
2022/03/13 03:18:50;;;;;;;7.63;5.07;;;-1.80;99.90;;;;;;5080438;28;20359;-80
2022/03/13 03:21:16;;;;;;;13.60;5.03;;;-1.80;99.90;;;;;;5079237;28;20184;-80
2022/03/13 03:23:41;;;;;;;7.13;4.43;;;-2.00;99.90;;;;;;5077819;28;20563;-76
2022/03/13 03:26:07;;;;;;;7.23;5.10;;;-2.00;99.90;;;;;;5079829;28;20177;-79
2022/03/13 03:28:34;;;;;;;9.10;5.13;;;-2.10;99.90;;;;;;5072328;28;20185;-80
2022/03/13 03:31:01;;;;;;;9.17;5.00;;;-2.10;99.90;;;;;;5079626;28;20290;-80
2022/03/13 03:33:27;;;;;;;9.27;4.77;;;-2.10;99.90;;;;;;5096252;28;20445;-80
2022/03/13 03:35:53;;;;;;;8.37;4.77;;;-2.10;99.90;;;;;;5081806;28;21202;-78
2022/03/13 03:38:19;;;;;;;10.33;5.50;;;-2.10;99.90;;;;;;5077204;28;20728;-77
2022/03/13 03:40:44;;;;;;;8.50;5.13;;;-2.00;99.90;;;;;;5078033;28;20186;-79
2022/03/13 03:43:10;;;;;;;7.97;4.67;;;-2.00;99.90;;;;;;5077475;28;20269;-80
2022/03/13 03:45:36;;;;;;;7.80;4.90;;;-2.00;99.90;;;;;;5078427;28;20267;-81
2022/03/13 03:48:02;;;;;;;7.57;4.63;;;-2.10;99.90;;;;;;5077466;28;20275;-81
2022/03/13 03:50:27;;;;;;;8.80;5.20;;;-2.10;99.90;;;;;;5096280;28;20204;-80
2022/03/13 03:52:55;;;;;;;9.23;4.93;;;-2.10;99.90;;;;;;5077695;28;20232;-81
2022/03/13 03:55:22;;;;;;;7.87;5.00;;;-2.10;99.90;;;;;;5077125;28;20831;-81
2022/03/13 03:57:47;;;;;;;9.10;5.17;;;-2.10;99.90;;;;;;5077605;28;20275;-80
2022/03/13 04:00:13;;;;;;;7.13;5.00;;;-2.10;99.90;;;;;;5075807;28;20327;-80
2022/03/13 04:02:40;;;;;;;6.10;5.03;;;-2.10;99.90;;;;;;5092683;28;20610;-81
2022/03/13 04:05:06;;;;;;;8.23;5.00;;;-1.90;99.90;;;;;;5077809;28;20262;-81
2022/03/13 04:07:32;;;;;;;8.73;4.77;;;-2.00;99.90;;;;;;5078872;28;20271;-81
2022/03/13 04:09:58;;;;;;;8.83;5.33;;;-1.90;99.90;;;;;;5075002;28;20277;-80
2022/03/13 04:12:25;;;;;;;6.13;4.47;;;-1.90;99.90;;;;;;5094621;28;20255;-80
2022/03/13 04:14:52;;;;;;;7.33;5.07;;;-1.90;99.90;;;;;;5076015;28;20284;-79
2022/03/13 04:17:17;;;;;;;8.53;4.93;;;-1.90;99.90;;;;;;5076742;28;20659;-80
2022/03/13 04:19:43;;;;;;;7.30;4.70;;;-2.00;99.90;;;;;;5077090;28;20231;-79
2022/03/13 04:22:09;;;;;;;9.43;5.10;;;-2.00;99.90;;;;;;5076967;28;20712;-78
2022/03/13 04:24:34;;;;;;;8.27;5.10;;;-1.90;99.90;;;;;;5075623;28;20169;-81
2022/03/13 04:27:00;;;;;;;7.17;5.17;;;-1.80;99.90;;;;;;5076344;28;20530;-81
2022/03/13 04:29:26;;;;;;;7.87;4.80;;;-1.80;99.90;;;;;;5080220;28;20203;-80
2022/03/13 04:31:53;;;;;;;8.03;5.10;;;-1.80;99.90;;;;;;5078269;28;20212;-79
2022/03/13 04:34:19;;;;;;;7.40;4.93;;;-1.90;99.90;;;;;;5076308;28;20181;-78
2022/03/13 04:36:45;;;;;;;7.50;4.47;;;-1.90;99.90;;;;;;5078094;28;20188;-81
2022/03/13 04:39:11;;;;;;;8.00;4.90;;;-1.90;99.90;;;;;;5077183;28;20655;-81
2022/03/13 04:41:41;;;;;;;6.93;4.97;;;-2.00;99.90;;;;;;5077677;28;20305;-80
2022/03/13 04:44:08;;;;;;;7.77;5.03;;;-2.10;99.90;;;;;;5077584;28;20197;-80
2022/03/13 04:46:35;;;;;;;9.07;5.00;;;-2.10;99.90;;;;;;5094391;28;20178;-80
2022/03/13 04:49:01;;;;;;;8.07;4.97;;;-2.10;99.90;;;;;;5077024;28;20204;-81
2022/03/13 04:51:27;;;;;;;8.27;4.90;;;-2.10;99.90;;;;;;5076756;28;20205;-80
2022/03/13 04:53:52;;;;;;;9.83;5.07;;;-2.00;99.90;;;;;;5076916;28;20273;-79
2022/03/13 04:56:18;;;;;;;10.77;4.70;;;-2.00;99.90;;;;;;5078225;28;20184;-80
2022/03/13 04:58:44;;;;;;;9.60;4.60;;;-2.00;99.90;;;;;;5077401;28;20189;-82
2022/03/13 05:01:10;;;;;;;8.33;4.97;;;-1.80;99.90;;;;;;5075651;28;20189;-79
2022/03/13 05:03:35;;;;;;;6.60;4.80;;;-1.90;99.90;;;;;;5075966;28;20219;-80
2022/03/13 05:06:05;;;;;;;7.70;4.70;;;-2.00;99.90;;;;;;5075957;28;20196;-78
2022/03/13 05:08:32;;;;;;;6.83;4.27;;;-2.00;99.90;;;;;;5076383;28;20279;-81
2022/03/13 05:10:58;;;;;;;7.27;4.30;;;-2.00;99.90;;;;;;5077356;28;20210;-78
2022/03/13 05:13:24;;;;;;;8.30;4.70;;;-2.10;99.90;;;;;;5077053;28;20316;-81
2022/03/13 05:15:52;;;;;;;7.87;5.03;;;-2.10;99.90;;;;;;5077432;28;21051;-78
2022/03/13 05:18:19;;;;;;;10.13;5.00;;;-2.00;99.90;;;;;;5078260;28;20246;-81
2022/03/13 05:20:45;;;;;;;9.20;5.07;;;-2.00;99.90;;;;;;5079107;28;20189;-83
2022/03/13 05:23:12;;;;;;;8.37;5.30;;;-2.00;99.90;;;;;;5081538;28;20201;-81
2022/03/13 05:25:39;;;;;;;8.77;4.93;;;-2.00;99.90;;;;;;5080069;28;20197;-80
2022/03/13 05:28:09;;;;;;;9.23;5.30;;;-2.10;99.90;;;;;;5081678;28;20189;-78
2022/03/13 05:30:36;;;;;;;8.73;4.97;;;-2.10;99.90;;;;;;5079210;28;21065;-83
2022/03/13 05:33:02;;;;;;;7.10;4.33;;;-2.10;99.90;;;;;;5078439;28;20573;-81
2022/03/13 05:35:28;;;;;;;7.97;4.63;;;-2.00;99.90;;;;;;5095939;28;20184;-78
2022/03/13 05:37:54;;;;;;;7.93;4.50;;;-2.10;99.90;;;;;;5078530;28;20197;-80
2022/03/13 05:40:21;;;;;;;6.10;4.30;;;-2.10;99.90;;;;;;5078663;28;20283;-80
2022/03/13 05:42:57;;;;;;;6.93;4.93;;;-2.10;99.90;;;;;;5080725;28;20205;-77
2022/03/13 05:45:25;;;;;;;7.37;4.70;;;-2.20;99.90;;;;;;5079736;28;20650;-80
2022/03/13 05:48:06;;;;;;;6.37;4.90;;;-2.20;99.90;;;;;;5078668;28;20203;-79
2022/03/13 05:50:32;;;;;;;9.40;4.87;;;-2.20;99.90;;;;;;5079930;28;20193;-80
2022/03/13 05:52:58;;;;;;;6.37;4.63;;;-2.20;99.90;;;;;;5080182;28;20201;-78
2022/03/13 05:55:25;;;;;;;9.47;5.20;;;-2.30;99.90;;;;;;5078435;28;20724;-77
2022/03/13 05:57:52;;;;;;;7.33;4.67;;;-2.30;99.90;;;;;;5079533;28;20636;-79
2022/03/13 06:00:20;;;;;;;7.60;4.53;;;-2.30;99.90;;;;;;5081812;28;20200;-81
2022/03/13 06:02:47;;;;;;;7.93;5.07;;;-2.10;99.90;;;;;;5078355;28;20991;-79
2022/03/13 06:05:16;;;;;;;5.00;4.27;;;-2.00;99.90;;;;;;5078228;28;20184;-77
2022/03/13 06:07:41;;;;;;;5.50;4.37;;;-1.80;99.90;;;;;;5079280;28;20272;-80
2022/03/13 06:10:08;;;;;;;6.73;4.53;;;-1.60;99.90;;;;;;5078384;28;20268;-79
2022/03/13 06:12:35;;;;;;;6.93;4.57;;;-1.60;99.90;;;;;;5079496;28;20205;-78
2022/03/13 06:15:02;;;;;;;9.20;4.83;;;-1.50;99.90;;;;;;5077353;28;20189;-81
2022/03/13 06:17:28;;;;;;;6.50;4.47;;;-1.50;99.90;;;;;;5095735;28;20700;-80
2022/03/13 06:19:55;;;;;;;6.33;4.20;;;-1.30;99.90;;;;;;5078244;28;20185;-80
2022/03/13 06:22:22;;;;;;;7.63;5.03;;;-1.20;99.90;;;;;;5080481;28;20221;-80
2022/03/13 06:24:48;;;;;;;5.87;3.83;;;-1.10;99.90;;;;;;5080228;28;20239;-80
2022/03/13 06:27:14;;;;;;;6.77;4.33;;;-0.90;99.90;;;;;;5084459;28;20177;-78
2022/03/13 06:29:40;;;;;;;7.40;4.17;;;-0.90;99.90;;;;;;5082062;28;20191;-79
2022/03/13 06:32:06;;;;;;;7.47;4.37;;;-0.80;99.90;;;;;;5082234;28;20276;-78
2022/03/13 06:34:32;;;;;;;6.33;4.30;;;-0.70;99.90;;;;;;5080798;28;20180;-79
2022/03/13 06:36:58;;;;;;;6.80;3.73;;;-0.70;99.90;;;;;;5082393;28;20918;-79
2022/03/13 06:39:23;;;;;;;6.43;4.40;;;-0.60;99.90;;;;;;5079669;28;20181;-79
2022/03/13 06:41:51;;;;;;;6.43;4.43;;;-0.60;99.90;;;;;;5081244;28;20812;-78
2022/03/13 06:44:17;;;;;;;9.07;5.03;;;-0.50;99.90;;;;;;5080030;28;20200;-81
2022/03/13 06:46:43;;;;;;;8.27;4.53;;;-0.40;99.90;;;;;;5080533;28;20289;-80
2022/03/13 06:49:09;;;;;;;6.83;4.40;;;-0.30;99.90;;;;;;5080221;28;21419;-80
2022/03/13 06:51:37;;;;;;;7.40;4.30;;;-0.20;99.90;;;;;;5081152;28;20234;-79
2022/03/13 06:54:03;;;;;;;6.07;4.50;;;0.00;99.90;;;;;;5077357;28;20192;-77
2022/03/13 06:56:29;;;;;;;6.47;4.27;;;0.10;99.90;;;;;;5080131;28;20319;-79
2022/03/13 06:59:02;;;;;;;5.60;3.77;;;0.30;99.90;;;;;;5078531;28;20259;-79
2022/03/13 07:01:31;;;;;;;5.23;4.17;;;0.40;99.90;;;;;;5080791;28;20185;-79
2022/03/13 07:03:57;;;;;;;8.83;4.70;;;0.50;99.90;;;;;;5081373;28;20296;-79
2022/03/13 07:06:22;;;;;;;7.53;4.77;;;0.60;99.90;;;;;;5083000;28;20249;-79
2022/03/13 07:08:48;;;;;;;6.13;3.93;;;0.70;99.90;;;;;;5088955;28;20193;-76
2022/03/13 07:11:15;;;;;;;7.20;4.27;;;0.80;99.90;;;;;;5087935;28;20549;-78
2022/03/13 07:13:44;;;;;;;5.50;4.37;;;1.00;99.90;;;;;;5086616;28;20208;-80
2022/03/13 07:16:10;;;;;;;6.43;3.90;;;1.10;99.40;;;;;;5089965;28;20271;-82
2022/03/13 07:18:39;;;;;;;6.40;4.00;;;1.20;98.80;;;;;;5068669;28;20209;-81
2022/03/13 07:21:06;;;;;;;6.50;4.23;;;1.30;97.50;;;;;;5072678;28;20213;-80
2022/03/13 07:23:31;;;;;;;6.33;4.13;;;1.50;96.20;;;;;;5086325;28;20213;-82
2022/03/13 07:25:57;;;;;;;6.77;4.13;;;1.60;96.00;;;;;;5088602;28;20214;-83
2022/03/13 07:28:23;;;;;;;6.83;4.40;;;1.70;95.40;;;;;;5087175;28;20261;-81
2022/03/13 07:30:48;;;;;;;6.40;3.70;;;1.80;95.30;;;;;;5079632;28;20205;-80
2022/03/13 07:33:15;;;;;;;7.03;4.20;;;2.00;94.60;;;;;;5080435;28;20225;-82
2022/03/13 07:35:46;;;;;;;7.40;4.57;;;2.10;95.70;;;;;;5091052;28;20435;-82
2022/03/13 07:38:36;;;;;;;6.30;4.43;;;2.10;95.80;;;;;;5079363;28;20188;-81
2022/03/13 07:41:03;;;;;;;5.47;4.17;;;2.20;95.80;;;;;;5084312;28;20209;-79
2022/03/13 07:43:29;;;;;;;5.20;4.30;;;2.30;95.50;;;;;;5075903;28;20247;-81
2022/03/13 07:46:02;;;;;;;7.60;4.50;;;2.50;95.60;;;;;;5079121;28;20219;-80
2022/03/13 07:48:29;;;;;;;9.03;4.53;;;2.60;95.00;;;;;;5076110;28;20184;-77
2022/03/13 07:50:57;;;;;;;6.90;4.10;;;2.90;93.90;;;;;;5077793;28;20224;-81
2022/03/13 07:53:26;;;;;;;5.63;4.13;;;3.00;93.10;;;;;;5075526;28;20791;-78
2022/03/13 07:55:52;;;;;;;5.73;3.80;;;3.10;91.10;;;;;;5074157;28;20184;-77
2022/03/13 07:58:18;;;;;;;6.13;3.90;;;3.20;90.80;;;;;;5078974;28;20189;-80
2022/03/13 08:00:45;;;;;;;8.67;4.37;;;3.30;90.30;;;;;;5079837;28;20558;-79
2022/03/13 08:03:15;;;;;;;7.53;4.30;;;3.40;90.60;;;;;;5080255;28;20293;-82
2022/03/13 08:05:40;;;;;;;4.80;3.93;;;3.50;89.60;;;;;;5081503;28;20296;-81
2022/03/13 08:08:06;;;;;;;5.77;4.00;;;3.70;88.60;;;;;;5079134;28;20995;-80
2022/03/13 08:10:32;;;;;;;8.40;4.30;;;3.90;87.10;;;;;;5078892;28;20204;-80
2022/03/13 08:12:57;;;;;;;7.63;4.30;;;3.90;86.40;;;;;;5079743;28;20291;-78
2022/03/13 08:15:23;;;;;;;6.17;3.87;;;4.10;85.90;;;;;;5078363;28;20632;-79
2022/03/13 08:17:49;;;;;;;5.13;3.93;;;4.10;83.30;;;;;;5078283;28;20538;-79
2022/03/13 08:20:15;;;;;;;6.47;4.07;;;4.20;84.60;;;;;;5079454;28;20416;-80
2022/03/13 08:22:41;;;;;;;5.80;4.20;;;4.40;82.50;;;;;;5079327;28;20205;-78
2022/03/13 08:25:07;;;;;;;6.43;3.90;;;4.50;80.40;;;;;;5076620;28;20191;-80
2022/03/13 08:27:34;;;;;;;6.00;4.30;;;4.60;81.50;;;;;;5076652;28;20202;-79
2022/03/13 08:30:01;;;;;;;6.50;3.70;;;4.70;81.10;;;;;;5078252;28;20181;-79
2022/03/13 08:32:27;;;;;;;7.90;5.20;;;4.80;77.40;;;;;;5076319;28;20196;-80
2022/03/13 08:34:52;;;;;;;13.97;8.20;;;4.70;76.40;;;;;;5076009;28;20272;-79
2022/03/13 08:37:18;;;;;;;13.30;8.13;;;4.70;76.50;;;;;;5075164;28;20227;-81
2022/03/13 08:39:44;;;;;;;13.63;9.23;;;4.80;75.30;;;;;;5076699;28;20422;-81
2022/03/13 08:42:10;;;;;;;17.40;11.23;;;4.90;74.50;;;;;;5091005;28;20201;-80
2022/03/13 08:44:35;;;;;;;16.10;10.73;;;4.90;74.10;;;;;;5076155;28;20198;-81
2022/03/13 08:47:02;;;;;;;7.67;4.87;;;5.10;74.30;;;;;;5076682;28;20173;-79
2022/03/13 08:49:28;;;;;;;10.40;7.80;;;5.20;73.70;;;;;;5077395;28;20196;-83
2022/03/13 08:51:54;;;;;;;9.10;5.97;;;5.40;73.20;;;;;;5074539;28;20209;-78
2022/03/13 08:54:20;;;;;;;11.83;6.30;;;5.60;73.60;;;;;;5077639;28;20174;-80
2022/03/13 08:56:48;;;;;;;12.60;7.73;;;5.80;72.00;;;;;;5076911;28;20172;-82
2022/03/13 08:59:20;;;;;;;12.33;8.80;;;6.00;70.80;;;;;;5076998;28;20629;-79
2022/03/13 09:01:47;;;;;;;5.90;4.53;;;5.90;69.30;;;;;;5081658;28;20296;-80
2022/03/13 09:04:13;;;;;;;7.83;5.90;;;6.10;68.50;;;;;;5079566;28;20182;-76
2022/03/13 09:06:39;;;;;;;8.83;4.80;;;6.20;67.80;;;;;;5081886;28;20203;-79
2022/03/13 09:09:08;;;;;;;9.70;6.23;;;6.20;67.20;;;;;;5074757;28;20177;-78
2022/03/13 09:11:34;;;;;;;12.43;7.90;;;6.40;68.90;;;;;;5077748;28;20300;-77
2022/03/13 09:14:00;;;;;;;7.10;5.03;;;6.50;66.00;;;;;;5076833;28;20268;-81
2022/03/13 09:16:26;;;;;;;8.07;5.10;;;6.60;65.90;;;;;;5079946;28;20202;-83
2022/03/13 09:18:53;;;;;;;7.70;5.73;;;6.80;65.90;;;;;;5076057;28;20177;-80
2022/03/13 09:21:19;;;;;;;7.67;4.87;;;6.90;65.60;;;;;;5077477;28;20702;-77
2022/03/13 09:23:44;;;;;;;6.00;5.40;;;7.00;64.50;;;;;;5079461;28;20202;-80
2022/03/13 09:26:10;;;;;;;5.83;4.73;;;7.00;65.00;;;;;;5079590;28;20181;-76
2022/03/13 09:28:36;;;;;;;5.07;4.00;;;7.20;64.80;;;;;;5081629;28;20179;-82
2022/03/13 09:31:01;;;;;;;4.67;3.90;;;7.30;62.10;;;;;;5081931;28;20697;-82
2022/03/13 09:33:27;;;;;;;5.03;4.07;;;7.40;62.80;;;;;;5082665;28;20321;-81
2022/03/13 09:35:53;;;;;;;7.73;5.93;;;7.50;63.00;;;;;;5083917;28;20182;-82
2022/03/13 09:38:19;;;;;;;9.13;6.73;;;7.60;61.70;;;;;;5079196;28;20696;-79
2022/03/13 09:40:45;;;;;;;5.30;4.43;;;7.70;63.40;;;;;;5077630;28;20193;-79
2022/03/13 09:43:10;;;;;;;6.27;4.43;;;7.80;60.80;;;;;;5077491;28;20274;-76
2022/03/13 09:45:36;;;;;;;6.10;4.37;;;7.80;62.30;;;;;;5076828;28;20182;-81
2022/03/13 09:48:03;;;;;;;5.73;4.40;;;7.90;60.80;;;;;;5076349;28;20190;-82
2022/03/13 09:50:30;;;;;;;6.93;4.47;;;8.00;61.00;;;;;;5076907;28;20197;-80
2022/03/13 09:52:55;;;;;;;7.20;4.47;;;8.00;60.00;;;;;;5075501;28;20561;-80
2022/03/13 09:55:21;;;;;;;7.23;4.83;;;8.10;59.70;;;;;;5075890;28;20197;-82
2022/03/13 09:57:48;;;;;;;7.60;4.47;;;8.20;60.10;;;;;;5078665;28;20188;-80
2022/03/13 10:00:17;;;;;;;8.10;5.73;;;8.30;61.00;;;;;;5078953;28;20230;-76
2022/03/13 10:02:43;;;;;;;8.43;5.93;;;8.40;60.40;;;;;;5082979;28;20208;-80
2022/03/13 10:05:15;;;;;;;11.57;6.40;;;8.50;60.70;;;;;;5081625;28;20678;-81
2022/03/13 10:07:59;;;;;;;9.03;6.53;;;8.80;61.00;;;;;;5081098;28;20181;-82
2022/03/13 10:10:28;;;;;;;5.70;4.43;;;8.80;60.10;;;;;;5081192;28;20196;-81
2022/03/13 10:12:54;;;;;;;6.00;4.67;;;8.90;59.80;;;;;;5081016;28;20299;-81
2022/03/13 10:15:20;;;;;;;5.80;4.60;;;8.90;59.80;;;;;;5096712;28;20181;-80
2022/03/13 10:17:46;;;;;;;4.90;4.10;;;9.10;60.20;;;;;;5080355;28;20184;-82
2022/03/13 10:20:23;;;;;;;5.77;4.63;;;9.30;60.20;;;;;;5079219;28;20188;-80
2022/03/13 10:23:00;;;;;;;6.73;4.33;;;9.30;58.50;;;;;;5079555;28;20235;-82
2022/03/13 10:25:34;;;;;;;5.13;4.17;;;9.50;58.50;;;;;;5073656;28;20216;-80
2022/03/13 10:28:17;;;;;;;6.23;4.40;;;9.70;59.50;;;;;;5076111;28;20272;-80
2022/03/13 10:30:45;;;;;;;5.50;3.77;;;9.80;57.40;;;;;;5071691;28;20271;-79
2022/03/13 10:33:11;;;;;;;5.00;3.87;;;9.80;55.60;;;;;;5067565;28;20620;-80
2022/03/13 10:35:38;;;;;;;5.67;4.13;;;9.80;56.30;;;;;;5070746;28;21110;-78
2022/03/13 10:38:18;;;;;;;4.83;3.77;;;9.80;55.00;;;;;;5073002;28;20185;-80
2022/03/13 10:40:45;;;;;;;6.13;4.20;;;9.80;55.50;;;;;;5079732;28;20185;-78
2022/03/13 10:43:18;;;;;;;7.50;4.63;;;9.90;54.30;;;;;;5068850;28;20444;-79
2022/03/13 10:45:51;;;;;;;6.47;3.97;;;9.80;53.70;;;;;;5075068;28;20189;-81
2022/03/13 10:48:30;;;;;;;5.83;4.23;;;9.90;54.20;;;;;;5082281;28;20189;-79
2022/03/13 10:51:00;;;;;;;7.43;4.33;;;10.10;54.40;;;;;;5071406;28;20748;-79
2022/03/13 10:53:28;;;;;;;5.67;4.07;;;10.20;53.60;;;;;;5073859;28;20288;-79
2022/03/13 10:56:13;;;;;;;5.40;3.97;;;10.30;53.00;;;;;;5076495;28;20196;-80
2022/03/13 10:58:45;;;;;;;5.03;3.87;;;10.30;53.10;;;;;;5071685;28;20228;-82
2022/03/13 11:01:19;;;;;;;6.77;3.90;;;10.30;53.20;;;;;;5074463;28;20212;-82
2022/03/13 11:03:55;;;;;;;4.67;3.87;;;10.30;52.90;;;;;;5077342;28;20202;-79
2022/03/13 11:06:23;;;;;;;5.07;4.07;;;10.50;53.10;;;;;;5078464;28;20560;-80
2022/03/13 11:08:54;;;;;;;5.63;4.27;;;10.40;52.60;;;;;;5078863;28;20586;-81
2022/03/13 11:11:21;;;;;;;4.70;3.63;;;10.60;52.30;;;;;;5079107;28;20234;-79
2022/03/13 11:13:51;;;;;;;5.07;4.07;;;10.60;52.20;;;;;;5077721;28;20223;-80
2022/03/13 11:16:31;;;;;;;5.30;3.90;;;10.80;52.90;;;;;;5086876;28;20182;-79
2022/03/13 11:19:02;;;;;;;5.37;4.27;;;10.80;51.60;;;;;;5078983;28;20761;-78
2022/03/13 11:21:28;;;;;;;4.97;4.47;;;10.90;53.10;;;;;;5072426;28;20185;-81
2022/03/13 11:23:55;;;;;;;5.43;4.17;;;11.10;52.30;;;;;;5081404;28;20189;-80
2022/03/13 11:26:25;;;;;;;7.77;5.97;;;11.10;52.00;;;;;;5077182;28;20186;-78
2022/03/13 11:28:53;;;;;;;8.27;5.30;;;11.30;50.90;;;;;;5080011;28;20185;-85
2022/03/13 11:31:42;;;;;;;7.30;5.77;;;11.20;49.90;;;;;;5075376;28;20209;-77
2022/03/13 11:34:16;;;;;;;7.43;5.37;;;11.20;51.00;;;;;;5076633;28;20232;-79
2022/03/13 11:36:46;;;;;;;14.60;7.20;;;11.20;50.40;;;;;;5074326;28;20787;-80
2022/03/13 11:39:27;;;;;;;9.60;6.33;;;11.20;50.50;;;;;;5075258;28;20531;-81
2022/03/13 11:41:53;;;;;;;8.93;5.67;;;11.30;51.50;;;;;;5074217;28;20208;-79
2022/03/13 11:44:20;;;;;;;6.77;6.07;;;11.40;50.60;;;;;;5076541;28;20200;-78
2022/03/13 11:46:48;;;;;;;7.50;5.27;;;11.40;50.80;;;;;;5075720;28;20193;-81
2022/03/13 11:49:34;;;;;;;5.97;4.60;;;11.40;50.20;;;;;;5068938;28;20188;-80
2022/03/13 11:52:20;;;;;;;6.70;5.53;;;11.30;49.40;;;;;;5067544;28;20229;-79
2022/03/13 11:54:52;;;;;;;11.00;7.97;;;11.30;48.90;;;;;;5091217;28;20210;-79
2022/03/13 11:57:28;;;;;;;14.97;11.67;;;11.30;49.10;;;;;;5073192;28;20192;-82
2022/03/13 12:00:12;;;;;;;10.37;6.90;;;11.50;49.50;;;;;;5071236;28;20200;-78
2022/03/13 12:02:40;;;;;;;9.63;7.20;;;11.60;49.90;;;;;;5067844;28;20204;-81
2022/03/13 12:05:24;;;;;;;6.20;5.27;;;11.70;50.00;;;;;;5069273;28;20177;-82
2022/03/13 12:07:57;;;;;;;11.40;6.63;;;11.60;49.20;;;;;;5074400;28;20193;-81
2022/03/13 12:10:30;;;;;;;6.53;5.13;;;11.60;50.00;;;;;;5080033;28;20211;-79
2022/03/13 12:13:03;;;;;;;6.00;5.40;;;11.60;49.10;;;;;;5070125;28;20197;-79
2022/03/13 12:15:29;;;;;;;6.87;5.73;;;11.70;49.50;;;;;;5074602;28;20172;-81
2022/03/13 12:17:57;;;;;;;6.97;5.67;;;11.80;49.60;;;;;;5067801;28;20280;-81
2022/03/13 12:20:25;;;;;;;15.97;12.20;;;12.00;49.30;;;;;;5065400;28;20181;-77
2022/03/13 12:22:54;;;;;;;14.40;12.97;;;12.00;49.20;;;;;;5073530;28;20223;-79
2022/03/13 12:25:24;;;;;;;9.17;8.27;;;12.00;49.00;;;;;;5073416;28;20180;-78
2022/03/13 12:27:50;;;;;;;5.07;4.50;;;12.10;49.10;;;;;;5068160;28;20182;-76
2022/03/13 12:30:26;;;;;;;4.63;4.20;;;12.10;48.30;;;;;;5067314;28;20193;-78
2022/03/13 12:32:59;;;;;;;7.27;6.20;;;12.10;48.20;;;;;;5072939;28;20204;-78
2022/03/13 12:35:26;;;;;;;5.93;4.60;;;12.10;47.50;;;;;;5065845;28;20264;-78
2022/03/13 12:38:01;;;;;;;5.47;4.20;;;12.20;47.40;;;;;;5067358;28;20172;-79
2022/03/13 12:40:29;;;;;;;4.87;4.37;;;12.10;48.80;;;;;;5068184;28;20191;-79
2022/03/13 12:42:57;;;;;;;5.07;4.40;;;12.20;47.50;;;;;;5071115;28;20639;-76
2022/03/13 12:45:24;;;;;;;5.17;3.87;;;12.10;47.80;;;;;;5071102;28;20539;-81
2022/03/13 12:47:55;;;;;;;6.27;4.27;;;12.20;48.10;;;;;;5067336;28;20615;-80
2022/03/13 12:50:25;;;;;;;5.67;4.70;;;12.20;47.40;;;;;;5065304;28;20556;-82
2022/03/13 12:52:55;;;;;;;5.23;4.13;;;12.30;47.70;;;;;;5069185;28;20211;-81
2022/03/13 12:55:22;;;;;;;6.40;4.43;;;12.30;48.00;;;;;;5069905;28;20660;-77